Time;durP1;ratioP1;P1;durP2;ratioP2;P2;SDS_P1;SDS_P2;PMS_P1;PMS_P2;Temp;Humidity;BMP_temperature;BMP_pressure;BME280_temperature;BME280_humidity;BME280_pressure;Samples;Min_cycle;Max_cycle;Signal;HPM_P1;HPM_P2
2021/11/24 00:00:05;;;;;;;63.40;35.42;;;8.90;99.90;;;;;;2074072;28;20060;-70
2021/11/24 00:01:06;;;;;;;58.88;35.00;;;8.90;99.90;;;;;;2072041;28;20478;-70
2021/11/24 00:02:07;;;;;;;55.42;32.60;;;8.90;99.90;;;;;;2072082;28;20387;-70
2021/11/24 00:03:08;;;;;;;65.38;37.13;;;8.90;99.90;;;;;;2072030;28;20018;-70
2021/11/24 00:04:08;;;;;;;54.58;32.45;;;8.90;99.90;;;;;;2072088;28;20026;-70
2021/11/24 00:05:09;;;;;;;51.78;32.85;;;8.90;99.90;;;;;;2078163;28;20022;-70
2021/11/24 00:06:09;;;;;;;53.80;32.50;;;8.90;99.90;;;;;;2080029;28;20036;-70
2021/11/24 00:07:10;;;;;;;55.67;32.90;;;8.90;99.90;;;;;;2080285;28;20486;-70
2021/11/24 00:08:10;;;;;;;58.72;33.78;;;8.90;99.90;;;;;;2079692;28;20021;-70
2021/11/24 00:09:11;;;;;;;61.97;35.03;;;8.90;99.90;;;;;;2080195;28;20025;-70
2021/11/24 00:10:14;;;;;;;59.75;32.95;;;8.90;99.90;;;;;;2080149;28;20025;-70
2021/11/24 00:11:15;;;;;;;60.55;33.40;;;8.90;99.90;;;;;;2080135;28;20540;-70
2021/11/24 00:12:15;;;;;;;59.17;33.38;;;8.90;99.90;;;;;;2080304;28;20117;-70
2021/11/24 00:13:16;;;;;;;63.65;35.10;;;8.90;99.90;;;;;;2079928;28;20048;-70
2021/11/24 00:14:17;;;;;;;62.15;33.92;;;8.90;99.90;;;;;;2076470;28;20049;-70
2021/11/24 00:15:17;;;;;;;63.22;35.78;;;8.90;99.90;;;;;;2079847;28;20029;-70
2021/11/24 00:16:18;;;;;;;75.35;37.08;;;8.90;99.90;;;;;;2072887;28;20050;-70
2021/11/24 00:17:18;;;;;;;74.32;35.75;;;8.90;99.90;;;;;;2073884;28;20037;-70
2021/11/24 00:18:19;;;;;;;72.43;36.95;;;8.90;99.90;;;;;;2079752;28;20031;-70
2021/11/24 00:19:20;;;;;;;80.22;37.85;;;8.80;99.90;;;;;;2079960;28;20152;-70
2021/11/24 00:20:20;;;;;;;76.78;36.80;;;8.80;99.90;;;;;;2079313;28;20059;-70
2021/11/24 00:21:21;;;;;;;70.07;36.08;;;8.80;99.90;;;;;;2079021;28;20021;-70
2021/11/24 00:22:22;;;;;;;74.45;37.15;;;8.80;99.90;;;;;;2079773;28;20445;-70
2021/11/24 00:23:22;;;;;;;76.35;37.42;;;8.80;99.90;;;;;;2080144;28;20482;-70
2021/11/24 00:24:23;;;;;;;69.78;36.60;;;8.90;99.90;;;;;;2079786;28;20100;-70
2021/11/24 00:25:23;;;;;;;73.88;35.63;;;8.90;99.90;;;;;;2080079;28;20500;-70
2021/11/24 00:26:24;;;;;;;66.47;33.45;;;8.90;99.90;;;;;;2077715;28;20029;-70
2021/11/24 00:27:25;;;;;;;68.35;34.67;;;8.90;99.90;;;;;;2077041;28;20496;-71
2021/11/24 00:28:26;;;;;;;64.00;33.42;;;8.90;99.90;;;;;;2079553;28;20056;-70
2021/11/24 00:29:26;;;;;;;67.50;32.55;;;8.90;99.90;;;;;;2079885;28;20042;-70
2021/11/24 00:30:27;;;;;;;79.70;35.90;;;8.90;99.90;;;;;;2079850;28;20034;-70
2021/11/24 00:31:28;;;;;;;65.40;33.20;;;8.90;99.90;;;;;;2079677;28;20108;-70
2021/11/24 00:32:28;;;;;;;69.75;33.50;;;8.90;99.90;;;;;;2079738;28;20029;-70
2021/11/24 00:33:29;;;;;;;74.95;36.42;;;8.90;99.90;;;;;;2080018;28;20030;-70
2021/11/24 00:34:30;;;;;;;68.88;35.25;;;8.90;99.90;;;;;;2079927;28;20466;-70
2021/11/24 00:35:30;;;;;;;70.90;35.65;;;8.90;99.90;;;;;;2080036;28;20013;-71
2021/11/24 00:36:31;;;;;;;66.03;34.78;;;8.90;99.90;;;;;;2078962;28;20021;-70
2021/11/24 00:37:31;;;;;;;64.47;34.88;;;9.00;99.90;;;;;;2079110;28;20036;-70
2021/11/24 00:38:32;;;;;;;70.10;33.90;;;9.00;99.90;;;;;;2079253;28;20021;-70
2021/11/24 00:39:33;;;;;;;74.43;35.53;;;9.00;99.90;;;;;;2079913;28;20087;-70
2021/11/24 00:40:33;;;;;;;76.40;35.70;;;9.00;99.90;;;;;;2079865;28;20021;-71
2021/11/24 00:41:34;;;;;;;72.65;36.08;;;9.00;99.90;;;;;;2079938;28;20108;-70
2021/11/24 00:42:35;;;;;;;72.05;34.40;;;9.00;99.90;;;;;;2079581;28;20025;-70
2021/11/24 00:43:35;;;;;;;75.38;34.40;;;9.00;99.90;;;;;;2074617;28;20389;-70
2021/11/24 00:44:36;;;;;;;70.20;35.10;;;9.00;99.90;;;;;;2071993;28;20176;-70
2021/11/24 00:45:37;;;;;;;72.72;36.65;;;9.00;99.90;;;;;;2074174;28;20059;-70
2021/11/24 00:46:39;;;;;;;72.90;34.30;;;9.00;99.90;;;;;;2078956;28;20033;-70
2021/11/24 00:47:40;;;;;;;74.72;35.90;;;9.00;99.90;;;;;;2080124;28;20021;-70
2021/11/24 00:48:41;;;;;;;73.30;36.33;;;9.00;99.90;;;;;;2079311;28;20529;-70
2021/11/24 00:49:42;;;;;;;75.10;35.75;;;9.00;99.90;;;;;;2079980;28;20108;-71
2021/11/24 00:50:43;;;;;;;79.80;37.72;;;9.00;99.90;;;;;;2079446;28;20032;-70
2021/11/24 00:51:43;;;;;;;74.38;35.83;;;9.00;99.90;;;;;;2079812;28;20112;-70
2021/11/24 00:52:45;;;;;;;76.70;36.72;;;9.00;99.90;;;;;;2079784;28;20768;-70
2021/11/24 00:53:45;;;;;;;71.72;36.47;;;8.90;99.90;;;;;;2079866;28;20454;-70
2021/11/24 00:54:46;;;;;;;77.18;36.63;;;9.00;99.90;;;;;;2076450;28;20923;-70
2021/11/24 00:55:46;;;;;;;74.82;36.03;;;8.90;99.90;;;;;;2079792;28;20029;-70
2021/11/24 00:56:47;;;;;;;71.88;34.75;;;9.00;99.90;;;;;;2072311;28;20038;-70
2021/11/24 00:57:48;;;;;;;80.40;36.72;;;9.00;99.90;;;;;;2079279;28;20072;-70
2021/11/24 00:58:48;;;;;;;76.72;37.47;;;9.00;99.90;;;;;;2078699;28;20061;-70
2021/11/24 00:59:49;;;;;;;83.35;37.70;;;9.00;99.90;;;;;;2071705;28;20442;-70
2021/11/24 01:00:49;;;;;;;78.40;36.33;;;9.00;99.90;;;;;;2079069;28;20022;-70
2021/11/24 01:01:51;;;;;;;78.07;35.10;;;9.00;99.90;;;;;;2078810;28;20029;-70
2021/11/24 01:02:52;;;;;;;78.80;36.70;;;9.00;99.90;;;;;;2071487;28;20057;-70
2021/11/24 01:03:52;;;;;;;88.20;38.28;;;9.00;99.90;;;;;;2079278;28;20052;-70
2021/11/24 01:04:53;;;;;;;83.35;38.40;;;9.00;99.90;;;;;;2079127;28;20029;-70
2021/11/24 01:05:53;;;;;;;75.93;34.60;;;8.90;99.90;;;;;;2071356;28;20587;-70
2021/11/24 01:06:54;;;;;;;80.22;37.83;;;8.90;99.90;;;;;;2071570;28;20390;-70
2021/11/24 01:07:55;;;;;;;77.40;36.10;;;8.90;99.90;;;;;;2071454;28;20026;-70
2021/11/24 01:08:55;;;;;;;82.68;38.30;;;8.90;99.90;;;;;;2079243;28;20060;-71
2021/11/24 01:09:56;;;;;;;80.65;36.75;;;8.90;99.90;;;;;;2070995;28;20037;-70
2021/11/24 01:10:57;;;;;;;85.28;39.85;;;8.90;99.90;;;;;;2075975;28;20042;-71
2021/11/24 01:11:58;;;;;;;86.53;39.55;;;8.90;99.90;;;;;;2071455;28;20413;-70
2021/11/24 01:12:58;;;;;;;89.65;39.17;;;8.90;99.90;;;;;;2071536;28;20802;-70
2021/11/24 01:14:00;;;;;;;86.72;38.72;;;8.90;99.90;;;;;;2071359;28;20390;-70
2021/11/24 01:15:00;;;;;;;83.18;39.30;;;8.90;99.90;;;;;;2071944;28;20076;-70
2021/11/24 01:16:01;;;;;;;91.20;40.92;;;8.90;99.90;;;;;;2071331;28;20025;-70
2021/11/24 01:17:02;;;;;;;92.90;40.00;;;8.90;99.90;;;;;;2071588;28;20021;-70
2021/11/24 01:18:03;;;;;;;85.40;39.72;;;8.90;99.90;;;;;;2071293;28;20053;-70
2021/11/24 01:19:04;;;;;;;83.25;36.42;;;8.90;99.90;;;;;;2071436;28;20045;-70
2021/11/24 01:20:06;;;;;;;96.80;40.80;;;8.90;99.90;;;;;;2071394;28;20056;-70
2021/11/24 01:21:06;;;;;;;91.22;39.00;;;8.90;99.90;;;;;;2071650;28;20026;-70
2021/11/24 01:22:07;;;;;;;99.20;41.22;;;8.90;99.90;;;;;;2072576;28;20029;-71
2021/11/24 01:23:08;;;;;;;89.47;39.83;;;8.90;99.90;;;;;;2070546;28;20033;-70
2021/11/24 01:24:09;;;;;;;91.50;38.53;;;8.90;99.90;;;;;;2076239;28;20446;-70
2021/11/24 01:25:10;;;;;;;90.65;40.00;;;8.90;99.90;;;;;;2083593;28;20025;-71
2021/11/24 01:26:11;;;;;;;91.82;38.80;;;8.90;99.90;;;;;;2070835;28;20100;-71
2021/11/24 01:27:12;;;;;;;92.75;39.30;;;8.90;99.90;;;;;;2079143;28;20029;-71
2021/11/24 01:28:12;;;;;;;92.22;38.80;;;8.90;99.90;;;;;;2078861;28;20117;-71
2021/11/24 01:29:13;;;;;;;81.90;35.72;;;8.90;99.90;;;;;;2079682;28;20088;-71
2021/11/24 01:30:14;;;;;;;87.00;39.50;;;8.90;99.90;;;;;;2077316;28;20140;-70
2021/11/24 01:31:15;;;;;;;97.30;40.63;;;9.00;99.90;;;;;;2078649;28;20032;-70
2021/11/24 01:32:15;;;;;;;97.72;39.15;;;8.90;99.90;;;;;;2082169;28;20028;-70
2021/11/24 01:33:16;;;;;;;97.18;41.22;;;8.90;99.90;;;;;;2082531;28;20453;-70
2021/11/24 01:34:16;;;;;;;94.78;40.38;;;9.00;99.90;;;;;;2087741;28;20029;-70
2021/11/24 01:35:17;;;;;;;83.10;35.95;;;8.90;99.90;;;;;;2082731;28;20014;-70
2021/11/24 01:36:18;;;;;;;84.68;36.95;;;9.00;99.90;;;;;;2079706;28;20099;-70
2021/11/24 01:37:18;;;;;;;92.50;38.97;;;9.00;99.90;;;;;;2079341;28;20444;-70
2021/11/24 01:38:19;;;;;;;88.85;38.80;;;9.00;99.90;;;;;;2078892;28;20075;-70
2021/11/24 01:39:20;;;;;;;91.88;38.33;;;9.00;99.90;;;;;;2079296;28;20473;-70
2021/11/24 01:40:20;;;;;;;73.60;32.90;;;9.00;99.90;;;;;;2079459;28;20025;-70
2021/11/24 01:41:21;;;;;;;86.95;36.67;;;9.00;99.90;;;;;;2079560;28;20025;-70
2021/11/24 01:42:21;;;;;;;92.28;39.30;;;9.00;99.90;;;;;;2079706;28;20029;-70
2021/11/24 01:43:22;;;;;;;96.88;39.58;;;9.00;99.90;;;;;;2079299;28;20393;-70
2021/11/24 01:44:26;;;;;;;96.43;37.88;;;9.00;99.90;;;;;;2079750;28;20059;-71
2021/11/24 01:45:26;;;;;;;99.57;39.80;;;9.00;99.90;;;;;;2079607;28;20029;-71
2021/11/24 01:46:28;;;;;;;88.18;36.38;;;9.00;99.90;;;;;;2079003;28;20064;-71
2021/11/24 01:47:29;;;;;;;99.65;40.15;;;9.00;99.90;;;;;;2070448;28;20033;-70
2021/11/24 01:48:30;;;;;;;94.38;38.20;;;9.00;99.90;;;;;;2078335;28;20024;-70
2021/11/24 01:49:32;;;;;;;92.45;38.50;;;9.00;99.90;;;;;;2079469;28;20041;-70
2021/11/24 01:50:33;;;;;;;100.75;41.55;;;9.00;99.90;;;;;;2079411;28;20029;-70
2021/11/24 01:51:34;;;;;;;98.38;40.35;;;9.00;99.90;;;;;;2074769;28;20251;-70
2021/11/24 01:52:34;;;;;;;92.75;37.92;;;9.00;99.90;;;;;;2071467;28;20486;-70
2021/11/24 01:53:35;;;;;;;96.72;40.20;;;9.00;99.90;;;;;;2070749;28;20029;-70
2021/11/24 01:54:36;;;;;;;85.20;37.38;;;9.00;99.90;;;;;;2071353;28;20052;-70
2021/11/24 01:55:36;;;;;;;95.22;37.53;;;9.00;99.90;;;;;;2077909;28;20026;-70
2021/11/24 01:56:37;;;;;;;103.25;40.72;;;9.00;99.90;;;;;;2073492;28;20085;-70
2021/11/24 01:57:41;;;;;;;91.80;39.00;;;9.00;99.90;;;;;;2071081;28;20463;-70
2021/11/24 01:58:42;;;;;;;109.03;41.83;;;9.00;99.90;;;;;;2071634;28;20105;-70
2021/11/24 01:59:47;;;;;;;103.80;42.03;;;9.00;99.90;;;;;;2078720;28;20029;-70
2021/11/24 02:00:47;;;;;;;84.40;37.47;;;9.00;99.90;;;;;;2078700;28;20053;-70
2021/11/24 02:01:49;;;;;;;100.13;39.53;;;9.00;99.90;;;;;;2071298;28;20033;-70
2021/11/24 02:02:50;;;;;;;93.97;39.40;;;9.00;99.90;;;;;;2071296;28;20118;-70
2021/11/24 02:03:50;;;;;;;107.82;41.30;;;9.00;99.90;;;;;;2071410;28;20091;-70
2021/11/24 02:04:51;;;;;;;80.93;36.35;;;9.00;99.90;;;;;;2073578;28;20108;-70
2021/11/24 02:05:52;;;;;;;91.63;38.28;;;9.00;99.90;;;;;;2079250;28;20037;-70
2021/11/24 02:06:53;;;;;;;97.47;41.03;;;9.00;99.90;;;;;;2078662;28;20502;-70
2021/11/24 02:07:54;;;;;;;105.88;40.33;;;9.00;99.90;;;;;;2072766;28;20454;-70
2021/11/24 02:08:54;;;;;;;97.53;39.22;;;9.00;99.90;;;;;;2076947;28;20037;-70
2021/11/24 02:09:55;;;;;;;101.95;42.13;;;9.00;99.90;;;;;;2079138;28;20521;-70
2021/11/24 02:10:58;;;;;;;104.70;39.63;;;9.10;99.90;;;;;;2075562;28;20366;-70
2021/11/24 02:11:59;;;;;;;77.40;32.00;;;9.00;99.90;;;;;;2071107;28;20037;-70
2021/11/24 02:13:00;;;;;;;110.50;40.75;;;9.10;99.90;;;;;;2071370;28;20116;-70
2021/11/24 02:14:00;;;;;;;103.28;41.38;;;9.10;99.90;;;;;;2071040;28;20049;-70
2021/11/24 02:15:01;;;;;;;94.43;38.67;;;9.10;99.90;;;;;;2071499;28;20057;-70
2021/11/24 02:16:02;;;;;;;94.32;38.45;;;9.00;99.90;;;;;;2071170;28;20080;-70
2021/11/24 02:17:03;;;;;;;108.82;42.15;;;9.10;99.90;;;;;;2071234;28;20478;-70
2021/11/24 02:18:05;;;;;;;99.07;39.80;;;9.10;99.90;;;;;;2070953;28;20087;-70
2021/11/24 02:19:06;;;;;;;113.43;43.70;;;9.10;99.90;;;;;;2070869;28;20014;-70
2021/11/24 02:20:15;;;;;;;81.55;36.67;;;9.10;99.90;;;;;;2070680;28;20018;-70
2021/11/24 02:21:18;;;;;;;103.40;40.50;;;9.00;99.90;;;;;;2074540;28;20021;-70
2021/11/24 02:22:18;;;;;;;100.97;40.22;;;9.00;99.90;;;;;;2076254;28;20261;-70
2021/11/24 02:23:19;;;;;;;115.07;43.50;;;9.00;99.90;;;;;;2072074;28;20116;-70
2021/11/24 02:24:23;;;;;;;92.72;38.35;;;9.00;99.90;;;;;;2079337;28;20021;-70
2021/11/24 02:25:24;;;;;;;104.07;41.80;;;9.10;99.90;;;;;;2080796;28;20060;-70
2021/11/24 02:26:25;;;;;;;110.32;41.53;;;9.10;99.90;;;;;;2080300;28;20033;-70
2021/11/24 02:27:26;;;;;;;95.32;38.67;;;9.00;99.90;;;;;;2080051;28;20071;-71
2021/11/24 02:28:26;;;;;;;108.78;44.22;;;9.10;99.90;;;;;;2079399;28;20057;-70
2021/11/24 02:29:27;;;;;;;104.97;40.97;;;9.10;99.90;;;;;;2080969;28;20029;-70
2021/11/24 02:30:29;;;;;;;104.47;40.53;;;9.10;99.90;;;;;;2080673;28;20017;-70
2021/11/24 02:31:39;;;;;;;104.70;43.00;;;9.10;99.90;;;;;;2081002;28;20104;-70
2021/11/24 02:32:39;;;;;;;107.55;43.10;;;9.10;99.90;;;;;;2078057;28;20022;-70
2021/11/24 02:33:48;;;;;;;104.68;43.15;;;9.10;99.90;;;;;;2080656;28;20029;-70
2021/11/24 02:34:49;;;;;;;109.47;42.88;;;9.10;99.90;;;;;;2080684;28;20025;-70
2021/11/24 02:35:49;;;;;;;111.25;45.88;;;9.00;99.90;;;;;;2080577;28;20532;-70
2021/11/24 02:36:50;;;;;;;109.05;44.17;;;9.10;99.90;;;;;;2079223;28;20025;-70
2021/11/24 02:37:51;;;;;;;108.25;44.20;;;9.10;99.90;;;;;;2080822;28;20029;-70
2021/11/24 02:38:52;;;;;;;106.55;42.83;;;9.00;99.90;;;;;;2079802;28;20116;-70
2021/11/24 02:39:52;;;;;;;104.93;41.63;;;9.00;99.90;;;;;;2080752;28;20631;-70
2021/11/24 02:40:53;;;;;;;114.13;43.72;;;9.00;99.90;;;;;;2080714;28;20022;-70
2021/11/24 02:41:53;;;;;;;112.97;43.30;;;9.10;99.90;;;;;;2080970;28;20034;-70
2021/11/24 02:42:54;;;;;;;97.47;40.05;;;9.00;99.90;;;;;;2080747;28;20104;-70
2021/11/24 02:43:55;;;;;;;98.80;41.72;;;9.00;99.90;;;;;;2081042;28;20025;-70
2021/11/24 02:44:56;;;;;;;113.70;44.22;;;9.10;99.90;;;;;;2079866;28;20120;-70
2021/11/24 02:45:56;;;;;;;109.05;42.35;;;9.10;99.90;;;;;;2080226;28;20571;-70
2021/11/24 02:47:11;;;;;;;94.45;38.90;;;9.10;99.90;;;;;;2073960;28;20029;-70
2021/11/24 02:48:11;;;;;;;113.57;43.83;;;9.10;99.90;;;;;;2071841;28;20048;-70
2021/11/24 02:49:12;;;;;;;108.88;42.78;;;9.10;99.90;;;;;;2076235;28;20021;-70
2021/11/24 02:50:13;;;;;;;124.30;47.22;;;9.10;99.90;;;;;;2080620;28;20134;-70
2021/11/24 02:51:13;;;;;;;107.30;41.92;;;9.10;99.90;;;;;;2080838;28;20034;-70
2021/11/24 02:52:15;;;;;;;102.72;41.65;;;9.10;99.90;;;;;;2081021;28;20082;-70
2021/11/24 02:53:15;;;;;;;101.20;39.28;;;9.10;99.90;;;;;;2080293;28;20029;-70
2021/11/24 02:54:16;;;;;;;107.75;42.85;;;9.10;99.90;;;;;;2080749;28;20108;-70
2021/11/24 02:55:17;;;;;;;106.72;42.65;;;9.10;99.90;;;;;;2080517;28;20056;-70
2021/11/24 02:56:17;;;;;;;114.32;44.47;;;9.10;99.90;;;;;;2080548;28;20614;-70
2021/11/24 02:57:19;;;;;;;101.85;40.58;;;9.10;99.90;;;;;;2080231;28;20032;-70
2021/11/24 02:58:20;;;;;;;109.32;41.50;;;9.10;99.90;;;;;;2072843;28;20561;-70
2021/11/24 02:59:21;;;;;;;110.05;44.17;;;9.10;99.90;;;;;;2072484;28;20095;-70
2021/11/24 03:00:27;;;;;;;113.57;44.65;;;9.10;99.90;;;;;;2072648;28;20084;-70
2021/11/24 03:01:28;;;;;;;110.50;43.58;;;9.10;99.90;;;;;;2073750;28;20033;-70
2021/11/24 03:02:29;;;;;;;98.15;39.80;;;9.10;99.90;;;;;;2081404;28;20025;-70
2021/11/24 03:03:29;;;;;;;100.25;39.78;;;9.10;99.90;;;;;;2084611;28;20075;-70
2021/11/24 03:04:32;;;;;;;97.80;40.85;;;9.10;99.90;;;;;;2082041;28;20045;-70
2021/11/24 03:05:33;;;;;;;114.10;44.22;;;9.10;99.90;;;;;;2081941;28;20030;-71
2021/11/24 03:06:34;;;;;;;100.07;40.70;;;9.10;99.90;;;;;;2081589;28;20052;-70
2021/11/24 03:07:36;;;;;;;108.60;41.03;;;9.10;99.90;;;;;;2078339;28;20038;-70
2021/11/24 03:08:36;;;;;;;100.13;38.83;;;9.10;99.90;;;;;;2076819;28;20057;-70
2021/11/24 03:09:37;;;;;;;96.40;38.67;;;9.10;99.90;;;;;;2081919;28;20029;-70
2021/11/24 03:10:38;;;;;;;99.80;41.83;;;9.10;99.90;;;;;;2081985;28;20032;-70
2021/11/24 03:11:38;;;;;;;97.65;41.20;;;9.10;99.90;;;;;;2082112;28;20025;-70
2021/11/24 03:12:40;;;;;;;111.32;43.13;;;9.10;99.90;;;;;;2081832;28;20032;-70
2021/11/24 03:13:41;;;;;;;110.57;43.03;;;9.10;99.90;;;;;;2081008;28;20136;-70
2021/11/24 03:14:41;;;;;;;105.70;43.17;;;9.10;99.90;;;;;;2081513;28;20076;-70
2021/11/24 03:15:42;;;;;;;104.18;39.50;;;9.10;99.90;;;;;;2081946;28;20053;-71
2021/11/24 03:16:43;;;;;;;114.65;43.22;;;9.10;99.90;;;;;;2081729;28;20049;-70
2021/11/24 03:17:43;;;;;;;105.47;42.05;;;9.10;99.90;;;;;;2076058;28;20022;-70
2021/11/24 03:18:44;;;;;;;105.32;43.78;;;9.10;99.90;;;;;;2073389;28;20029;-70
2021/11/24 03:19:46;;;;;;;117.60;43.78;;;9.20;99.90;;;;;;2073859;28;20022;-70
2021/11/24 03:20:47;;;;;;;113.63;45.63;;;9.10;99.90;;;;;;2073664;28;20038;-70
2021/11/24 03:21:47;;;;;;;118.60;46.25;;;9.10;99.90;;;;;;2075382;28;20026;-70
2021/11/24 03:22:48;;;;;;;119.18;44.28;;;9.10;99.90;;;;;;2081968;28;20111;-70
2021/11/24 03:23:48;;;;;;;108.05;45.47;;;9.10;99.90;;;;;;2081672;28;20021;-70
2021/11/24 03:24:55;;;;;;;112.35;43.17;;;9.10;99.90;;;;;;2081970;28;20156;-70
2021/11/24 03:25:55;;;;;;;100.03;41.05;;;9.10;99.90;;;;;;2081454;28;20039;-70
2021/11/24 03:26:56;;;;;;;91.07;38.40;;;9.10;99.90;;;;;;2081744;28;20041;-70
2021/11/24 03:27:57;;;;;;;109.18;42.50;;;9.10;99.90;;;;;;2081778;28;20018;-70
2021/11/24 03:28:58;;;;;;;118.90;44.90;;;9.20;99.90;;;;;;2081251;28;20428;-70
2021/11/24 03:30:00;;;;;;;119.13;46.60;;;9.10;99.90;;;;;;2078623;28;20036;-70
2021/11/24 03:31:01;;;;;;;110.80;45.53;;;9.20;99.90;;;;;;2080021;28;20026;-70
2021/11/24 03:32:01;;;;;;;120.90;45.53;;;9.20;99.90;;;;;;2083323;28;20026;-70
2021/11/24 03:33:04;;;;;;;110.00;44.88;;;9.20;99.90;;;;;;2083283;28;20036;-70
2021/11/24 03:34:06;;;;;;;91.50;38.05;;;9.20;99.90;;;;;;2081354;28;20057;-71
2021/11/24 03:35:07;;;;;;;99.65;41.42;;;9.20;99.90;;;;;;2081505;28;20347;-70
2021/11/24 03:36:08;;;;;;;100.70;40.72;;;9.10;99.90;;;;;;2081094;28;20025;-70
2021/11/24 03:37:09;;;;;;;94.85;38.92;;;9.20;99.90;;;;;;2080497;28;20555;-70
2021/11/24 03:38:09;;;;;;;89.97;38.00;;;9.20;99.90;;;;;;2081438;28;20030;-70
2021/11/24 03:39:10;;;;;;;107.50;42.83;;;9.20;99.90;;;;;;2081421;28;20037;-70
2021/11/24 03:40:12;;;;;;;111.45;43.50;;;9.20;99.90;;;;;;2081852;28;20585;-70
2021/11/24 03:41:14;;;;;;;110.88;44.53;;;9.10;99.90;;;;;;2081754;28;20021;-70
2021/11/24 03:42:16;;;;;;;120.93;45.65;;;9.10;99.90;;;;;;2081979;28;20112;-70
2021/11/24 03:43:17;;;;;;;119.28;43.38;;;9.10;99.90;;;;;;2081616;28;20513;-70
2021/11/24 03:44:17;;;;;;;106.28;43.80;;;9.20;99.90;;;;;;2081914;28;20114;-70
2021/11/24 03:45:22;;;;;;;99.38;40.72;;;9.20;99.90;;;;;;2075212;28;20018;-70
2021/11/24 03:46:22;;;;;;;123.28;45.33;;;9.20;99.90;;;;;;2075703;28;20018;-70
2021/11/24 03:47:23;;;;;;;128.45;48.22;;;9.20;99.90;;;;;;2081770;28;20025;-70
2021/11/24 03:48:23;;;;;;;111.90;41.80;;;9.20;99.90;;;;;;2080876;28;20026;-70
2021/11/24 03:49:24;;;;;;;115.20;45.05;;;9.20;99.90;;;;;;2080946;28;20065;-70
2021/11/24 03:50:26;;;;;;;116.72;45.45;;;9.20;99.90;;;;;;2081071;28;20127;-70
2021/11/24 03:51:26;;;;;;;130.23;48.17;;;9.20;99.90;;;;;;2081488;28;20030;-70
2021/11/24 03:52:27;;;;;;;134.63;47.40;;;9.20;99.90;;;;;;2081930;28;20496;-70
2021/11/24 03:53:27;;;;;;;125.20;48.10;;;9.20;99.90;;;;;;2081482;28;20029;-70
2021/11/24 03:54:28;;;;;;;125.22;46.88;;;9.20;99.90;;;;;;2080708;28;20028;-70
2021/11/24 03:55:29;;;;;;;139.88;51.38;;;9.20;99.90;;;;;;2077086;28;20026;-70
2021/11/24 03:56:29;;;;;;;124.07;48.85;;;9.20;99.90;;;;;;2077959;28;20104;-71
2021/11/24 03:57:30;;;;;;;138.55;49.33;;;9.20;99.90;;;;;;2081612;28;20124;-70
2021/11/24 03:58:31;;;;;;;140.57;49.60;;;9.20;99.90;;;;;;2080779;28;20025;-70
2021/11/24 03:59:31;;;;;;;131.43;49.00;;;9.20;99.90;;;;;;2081618;28;20025;-70
2021/11/24 04:00:33;;;;;;;134.30;49.22;;;9.20;99.90;;;;;;2081819;28;20021;-70
2021/11/24 04:01:34;;;;;;;131.95;50.20;;;9.20;99.90;;;;;;2081557;28;20033;-70
2021/11/24 04:02:34;;;;;;;119.75;46.25;;;9.20;99.90;;;;;;2080313;28;20030;-70
2021/11/24 04:03:35;;;;;;;127.35;48.40;;;9.20;99.90;;;;;;2080623;28;20017;-70
2021/11/24 04:04:36;;;;;;;128.40;46.92;;;9.20;99.90;;;;;;2080493;28;20104;-70
2021/11/24 04:05:37;;;;;;;116.72;46.45;;;9.20;99.90;;;;;;2080380;28;20026;-70
2021/11/24 04:06:37;;;;;;;127.68;47.42;;;9.20;99.90;;;;;;2080073;28;20037;-70
2021/11/24 04:07:38;;;;;;;126.47;48.38;;;9.20;99.90;;;;;;2076454;28;20041;-70
2021/11/24 04:08:39;;;;;;;122.30;48.88;;;9.20;99.90;;;;;;2076260;28;20036;-70
2021/11/24 04:09:39;;;;;;;137.10;50.13;;;9.20;99.90;;;;;;2080114;28;20109;-70
2021/11/24 04:10:40;;;;;;;129.57;50.10;;;9.20;99.90;;;;;;2080308;28;20025;-70
2021/11/24 04:11:40;;;;;;;140.23;51.22;;;9.20;99.90;;;;;;2080387;28;20033;-70
2021/11/24 04:12:42;;;;;;;137.90;51.25;;;9.20;99.90;;;;;;2080352;28;20540;-70
2021/11/24 04:13:43;;;;;;;134.88;51.13;;;9.20;99.90;;;;;;2079048;28;20094;-70
2021/11/24 04:14:43;;;;;;;141.88;51.17;;;9.20;99.90;;;;;;2079595;28;20059;-70
2021/11/24 04:15:44;;;;;;;137.73;50.47;;;9.20;99.90;;;;;;2080233;28;20509;-70
2021/11/24 04:16:45;;;;;;;110.88;42.88;;;9.20;99.90;;;;;;2079417;28;20060;-70
2021/11/24 04:17:47;;;;;;;123.78;46.70;;;9.20;99.90;;;;;;2073324;28;20030;-70
2021/11/24 04:18:48;;;;;;;135.23;47.80;;;9.10;99.90;;;;;;2071262;28;20026;-70
2021/11/24 04:19:49;;;;;;;122.32;48.70;;;9.10;99.90;;;;;;2072189;28;20530;-70
2021/11/24 04:20:50;;;;;;;119.70;45.65;;;9.20;99.90;;;;;;2077065;28;20033;-70
2021/11/24 04:21:50;;;;;;;121.60;47.15;;;9.10;99.90;;;;;;2080146;28;20022;-70
2021/11/24 04:22:51;;;;;;;123.63;47.42;;;9.20;99.90;;;;;;2071862;28;20079;-70
2021/11/24 04:23:51;;;;;;;115.22;44.17;;;9.20;99.90;;;;;;2075285;28;20036;-70
2021/11/24 04:24:52;;;;;;;119.82;46.55;;;9.10;99.90;;;;;;2080315;28;20022;-70
2021/11/24 04:25:53;;;;;;;129.48;48.22;;;9.20;99.90;;;;;;2080088;28;20025;-70
2021/11/24 04:26:53;;;;;;;132.40;50.72;;;9.20;99.90;;;;;;2077849;28;20033;-71
2021/11/24 04:27:56;;;;;;;122.20;44.85;;;9.10;99.90;;;;;;2078119;28;20033;-70
2021/11/24 04:28:57;;;;;;;131.55;48.47;;;9.10;99.90;;;;;;2079349;28;20355;-70
2021/11/24 04:29:57;;;;;;;141.73;51.33;;;9.20;99.90;;;;;;2080396;28;20052;-70
2021/11/24 04:30:58;;;;;;;138.02;51.72;;;9.20;99.90;;;;;;2079752;28;20037;-70
2021/11/24 04:31:59;;;;;;;139.88;51.58;;;9.20;99.90;;;;;;2078639;28;20021;-70
2021/11/24 04:32:59;;;;;;;141.07;50.42;;;9.10;99.90;;;;;;2079577;28;20025;-70
2021/11/24 04:34:00;;;;;;;145.48;51.72;;;9.10;99.90;;;;;;2079961;28;20113;-70
2021/11/24 04:35:00;;;;;;;135.90;50.90;;;9.10;99.90;;;;;;2080187;28;20033;-70
2021/11/24 04:36:01;;;;;;;146.90;52.65;;;9.10;99.90;;;;;;2080103;28;20032;-70
2021/11/24 04:37:02;;;;;;;136.38;50.40;;;9.20;99.90;;;;;;2079773;28;20101;-70
2021/11/24 04:38:02;;;;;;;145.45;50.63;;;9.10;99.90;;;;;;2080184;28;20083;-70
2021/11/24 04:39:04;;;;;;;142.68;49.70;;;9.20;99.90;;;;;;2079331;28;20033;-70
2021/11/24 04:40:06;;;;;;;146.02;53.63;;;9.10;99.90;;;;;;2080292;28;20112;-70
2021/11/24 04:41:06;;;;;;;126.28;48.88;;;9.10;99.90;;;;;;2079261;28;20108;-70
2021/11/24 04:42:07;;;;;;;137.68;50.50;;;9.20;99.90;;;;;;2079979;28;20029;-70
2021/11/24 04:43:11;;;;;;;125.75;45.22;;;9.20;99.90;;;;;;2079763;28;20026;-70
2021/11/24 04:44:12;;;;;;;117.43;44.90;;;9.20;99.90;;;;;;2079965;28;20033;-70
2021/11/24 04:45:13;;;;;;;136.82;50.00;;;9.20;99.90;;;;;;2079659;28;20037;-70
2021/11/24 04:46:16;;;;;;;125.95;46.20;;;9.20;99.90;;;;;;2080171;28;20470;-70
2021/11/24 04:47:16;;;;;;;146.18;51.22;;;9.10;99.90;;;;;;2079270;28;20051;-70
2021/11/24 04:48:17;;;;;;;138.93;50.70;;;9.10;99.90;;;;;;2078483;28;20053;-70
2021/11/24 04:49:18;;;;;;;151.93;52.78;;;9.20;99.90;;;;;;2079916;28;20018;-70
2021/11/24 04:50:19;;;;;;;137.30;48.08;;;9.20;99.90;;;;;;2080067;28;20053;-70
2021/11/24 04:51:20;;;;;;;140.05;49.17;;;9.20;99.90;;;;;;2080024;28;20477;-70
2021/11/24 04:52:21;;;;;;;119.22;43.90;;;9.10;99.90;;;;;;2080015;28;20449;-70
2021/11/24 04:53:21;;;;;;;121.10;44.70;;;9.20;99.90;;;;;;2079978;28;20509;-70
2021/11/24 04:54:22;;;;;;;139.52;51.03;;;9.20;99.90;;;;;;2079900;28;20067;-70
2021/11/24 04:55:22;;;;;;;136.88;48.17;;;9.20;99.90;;;;;;2080259;28;20025;-70
2021/11/24 04:56:23;;;;;;;133.07;47.28;;;9.20;99.90;;;;;;2079737;28;20127;-71
2021/11/24 04:57:24;;;;;;;141.82;48.47;;;9.20;99.90;;;;;;2080147;28;20022;-70
2021/11/24 04:58:24;;;;;;;134.55;48.67;;;9.20;99.90;;;;;;2079246;28;20045;-70
2021/11/24 04:59:25;;;;;;;156.43;54.08;;;9.20;99.90;;;;;;2079952;28;20085;-70
2021/11/24 05:00:26;;;;;;;149.77;52.30;;;9.10;99.90;;;;;;2079934;28;20050;-70
2021/11/24 05:01:27;;;;;;;137.55;52.28;;;9.10;99.90;;;;;;2079588;28;20029;-70
2021/11/24 05:02:27;;;;;;;144.45;50.08;;;9.20;99.90;;;;;;2079936;28;20429;-70
2021/11/24 05:03:28;;;;;;;142.23;52.03;;;9.20;99.90;;;;;;2071534;28;20033;-70
2021/11/24 05:04:29;;;;;;;146.70;51.67;;;9.20;99.90;;;;;;2071004;28;20041;-70
2021/11/24 05:05:30;;;;;;;126.05;46.97;;;9.20;99.90;;;;;;2071448;28;20105;-70
2021/11/24 05:06:31;;;;;;;148.95;50.72;;;9.20;99.90;;;;;;2077080;28;20060;-70
2021/11/24 05:07:32;;;;;;;138.38;50.35;;;9.20;99.90;;;;;;2077535;28;20473;-70
2021/11/24 05:08:34;;;;;;;127.40;46.25;;;9.20;99.90;;;;;;2074649;28;20363;-70
2021/11/24 05:09:35;;;;;;;112.28;41.92;;;9.20;99.90;;;;;;2079965;28;20025;-70
2021/11/24 05:10:36;;;;;;;124.80;45.00;;;9.20;99.90;;;;;;2079803;28;20155;-70